createdAt,value
2019-02-26T00:00:47.084Z,30.77
2019-02-26T00:03:52.128Z,30.10
2019-02-26T00:06:57.532Z,29.20
2019-02-26T00:10:02.581Z,27.93
2019-02-26T00:13:07.671Z,26.77
2019-02-26T00:16:13.400Z,25.65
2019-02-26T00:19:16.488Z,28.23
2019-02-26T00:22:19.920Z,28.27
2019-02-26T00:25:24.403Z,26.90
2019-02-26T00:28:27.844Z,28.45
2019-02-26T00:31:31.311Z,28.07
2019-02-26T00:34:36.742Z,26.93
2019-02-26T00:37:41.021Z,26.62
2019-02-26T00:40:44.577Z,25.37
2019-02-26T00:43:51.219Z,27.30
2019-02-26T00:46:53.622Z,26.23
2019-02-26T00:49:58.568Z,26.33
2019-02-26T00:53:03.884Z,26.13
2019-02-26T00:56:08.000Z,25.50
2019-02-26T00:59:12.452Z,26.33
2019-02-26T01:02:15.896Z,25.80
2019-02-26T01:05:19.460Z,26.97
2019-02-26T01:08:23.000Z,27.33
2019-02-26T01:11:27.988Z,26.83
2019-02-26T01:14:31.712Z,28.97
2019-02-26T01:17:35.816Z,27.03
2019-02-26T01:20:40.349Z,28.20
2019-02-26T01:23:43.851Z,29.97
2019-02-26T01:26:47.277Z,31.37
2019-02-26T01:29:53.185Z,30.00
2019-02-26T01:32:57.626Z,31.10
2019-02-26T01:36:02.656Z,28.17
2019-02-26T01:39:09.669Z,30.10
2019-02-26T01:42:13.386Z,29.87
2019-02-26T01:45:19.618Z,31.93
2019-02-26T01:48:23.783Z,32.47
2019-02-26T01:51:28.673Z,30.10
2019-02-26T01:54:33.413Z,27.60
2019-02-26T01:57:37.628Z,26.73
2019-02-26T02:00:41.285Z,26.07
2019-02-26T02:03:46.562Z,26.30
2019-02-26T02:06:50.132Z,26.60
2019-02-26T02:09:55.554Z,26.47
2019-02-26T02:13:00.273Z,27.07
2019-02-26T02:16:06.727Z,28.33
2019-02-26T02:19:09.763Z,25.77
2019-02-26T02:22:14.659Z,25.93
2019-02-26T02:25:19.217Z,27.50
2019-02-26T02:28:23.827Z,27.47
2019-02-26T02:31:31.237Z,26.17
2019-02-26T02:34:36.602Z,25.50
2019-02-26T02:37:38.419Z,26.93
2019-02-26T02:40:43.175Z,28.40
2019-02-26T02:43:47.065Z,26.57
2019-02-26T02:46:50.468Z,25.80
2019-02-26T02:49:53.971Z,28.97
2019-02-26T02:52:59.660Z,27.50
2019-02-26T02:56:03.694Z,25.70
2019-02-26T02:59:08.938Z,23.80
2019-02-26T03:02:15.087Z,31.20
2019-02-26T03:05:18.754Z,31.67
2019-02-26T03:08:22.624Z,28.87
2019-02-26T03:11:26.260Z,29.50
2019-02-26T03:14:30.770Z,28.10
2019-02-26T03:17:34.954Z,29.47
2019-02-26T03:20:40.395Z,30.50
2019-02-26T03:23:45.596Z,29.50
2019-02-26T03:26:49.244Z,27.27
2019-02-26T03:29:55.590Z,28.10
2019-02-26T03:33:03.899Z,29.23
2019-02-26T03:36:05.456Z,27.63
2019-02-26T03:39:08.849Z,33.10
2019-02-26T03:42:14.175Z,30.27
2019-02-26T03:45:23.581Z,27.43
2019-02-26T03:48:23.091Z,30.17
2019-02-26T03:51:26.688Z,32.70
2019-02-26T03:54:30.192Z,35.70
2019-02-26T03:57:33.686Z,34.10
2019-02-26T04:00:38.676Z,29.50
2019-02-26T04:03:42.744Z,31.93
2019-02-26T04:06:47.174Z,28.30
2019-02-26T04:09:53.100Z,31.07
2019-02-26T04:12:58.057Z,30.37
2019-02-26T04:16:02.247Z,31.67
2019-02-26T04:19:08.951Z,30.73
2019-02-26T04:22:28.432Z,29.40
2019-02-26T04:26:15.955Z,32.60
2019-02-26T04:30:10.995Z,31.47
2019-02-26T04:34:05.396Z,29.30
2019-02-26T04:37:35.079Z,29.63
2019-02-26T04:41:08.837Z,30.20
2019-02-26T04:44:50.364Z,32.23
2019-02-26T04:47:54.690Z,29.27
2019-02-26T04:50:56.648Z,28.20
2019-02-26T04:54:02.023Z,29.33
2019-02-26T04:57:06.308Z,30.90
2019-02-26T05:00:10.694Z,30.40
2019-02-26T05:03:17.191Z,29.90
2019-02-26T05:06:19.789Z,30.20
2019-02-26T05:09:24.725Z,31.63
2019-02-26T05:12:30.891Z,31.12
2019-02-26T05:15:33.916Z,32.13
2019-02-26T05:18:38.416Z,32.20
2019-02-26T05:21:41.807Z,33.73
2019-02-26T05:24:47.427Z,32.97
2019-02-26T05:27:51.568Z,33.47
2019-02-26T05:30:55.126Z,32.40
2019-02-26T05:34:00.067Z,33.57
2019-02-26T05:37:04.716Z,33.47
2019-02-26T05:40:12.606Z,32.33
2019-02-26T05:43:14.100Z,31.87
2019-02-26T05:46:19.550Z,31.03
2019-02-26T05:49:22.948Z,37.17
2019-02-26T05:52:27.272Z,34.13
2019-02-26T05:55:31.737Z,34.67
2019-02-26T05:58:36.302Z,32.60
2019-02-26T06:01:40.548Z,36.17
2019-02-26T06:04:46.570Z,33.33
2019-02-26T06:07:49.209Z,34.40
2019-02-26T06:10:52.629Z,32.53
2019-02-26T06:13:58.173Z,33.23
2019-02-26T06:17:01.136Z,32.93
2019-02-26T06:20:11.118Z,33.17
2019-02-26T06:23:14.592Z,33.95
2019-02-26T06:26:18.126Z,33.58
2019-02-26T06:29:24.449Z,32.77
2019-02-26T06:32:29.916Z,32.50
2019-02-26T06:35:33.688Z,35.00
2019-02-26T06:38:37.429Z,32.47
2019-02-26T06:41:41.927Z,32.73
2019-02-26T06:44:47.120Z,31.35
2019-02-26T06:47:53.513Z,32.10
2019-02-26T06:50:57.533Z,33.60
2019-02-26T06:54:02.004Z,33.10
2019-02-26T06:57:05.515Z,30.63
2019-02-26T07:00:10.855Z,32.83
2019-02-26T07:03:14.460Z,32.00
2019-02-26T07:06:20.586Z,32.03
2019-02-26T07:09:23.210Z,32.67
2019-02-26T07:12:26.651Z,33.03
2019-02-26T07:15:31.128Z,33.95
2019-02-26T07:18:34.531Z,33.40
2019-02-26T07:21:38.016Z,33.90
2019-02-26T07:24:46.287Z,32.23
2019-02-26T07:27:51.214Z,33.00
2019-02-26T07:30:54.688Z,32.63
2019-02-26T07:34:00.471Z,31.20
2019-02-26T07:37:04.251Z,32.17
2019-02-26T07:40:10.634Z,33.18
2019-02-26T07:43:15.445Z,34.10
2019-02-26T07:46:21.459Z,33.58
2019-02-26T07:49:25.728Z,32.95
2019-02-26T07:52:31.233Z,32.05
2019-02-26T07:55:35.388Z,32.05
2019-02-26T07:58:41.194Z,32.45
2019-02-26T08:01:49.638Z,31.93
2019-02-26T08:04:52.560Z,30.87
2019-02-26T08:07:56.616Z,33.08
2019-02-26T08:11:00.185Z,31.82
2019-02-26T08:14:03.936Z,31.85
2019-02-26T08:17:08.556Z,32.03
2019-02-26T08:20:14.897Z,30.52
2019-02-26T08:23:19.883Z,31.57
2019-02-26T08:26:24.419Z,31.90
2019-02-26T08:29:31.327Z,32.90
2019-02-26T08:32:34.464Z,32.05
2019-02-26T08:35:37.932Z,31.57
2019-02-26T08:38:41.477Z,33.13
2019-02-26T08:42:13.427Z,31.93
2019-02-26T08:45:21.037Z,31.75
2019-02-26T08:48:24.675Z,31.87
2019-02-26T08:51:29.028Z,33.08
2019-02-26T08:54:33.326Z,31.77
2019-02-26T08:57:37.708Z,32.40
2019-02-26T09:00:42.196Z,33.25
2019-02-26T09:03:45.632Z,34.53
2019-02-26T09:06:50.556Z,33.70
2019-02-26T09:09:57.959Z,35.05
2019-02-26T09:13:03.212Z,33.33
2019-02-26T09:16:08.662Z,33.25
2019-02-26T09:19:14.709Z,33.53
2019-02-26T09:22:20.741Z,33.67
2019-02-26T09:25:26.122Z,33.58
2019-02-26T09:28:29.562Z,33.30
2019-02-26T09:31:34.256Z,33.02
2019-02-26T09:34:39.838Z,30.92
2019-02-26T09:37:44.835Z,34.33
2019-02-26T09:40:50.104Z,32.73
2019-02-26T09:43:55.032Z,33.42
2019-02-26T09:47:00.565Z,33.13
2019-02-26T09:50:04.095Z,33.23
2019-02-26T09:53:07.689Z,33.38
2019-02-26T09:56:11.144Z,32.67
2019-02-26T09:59:14.795Z,35.15
2019-02-26T10:02:20.121Z,31.65
2019-02-26T10:05:23.952Z,34.40
2019-02-26T10:08:29.944Z,31.52
2019-02-26T10:11:32.802Z,31.80
2019-02-26T10:14:38.396Z,31.23
2019-02-26T10:17:42.746Z,31.20
2019-02-26T10:20:47.550Z,32.10
2019-02-26T10:23:53.987Z,31.80
2019-02-26T10:27:00.767Z,31.93
2019-02-26T10:30:05.060Z,31.42
2019-02-26T10:33:08.262Z,30.88
2019-02-26T10:36:13.456Z,32.83
2019-02-26T10:39:20.104Z,31.10
2019-02-26T10:42:22.321Z,30.70
2019-02-26T10:45:26.624Z,36.63
2019-02-26T10:48:30.081Z,31.70
2019-02-26T10:51:33.645Z,33.35
2019-02-26T10:54:40.338Z,31.05
2019-02-26T10:57:42.390Z,30.85
2019-02-26T11:00:49.969Z,31.17
2019-02-26T11:03:55.138Z,31.65
2019-02-26T11:06:59.392Z,31.70
2019-02-26T11:10:05.313Z,33.30
2019-02-26T11:13:09.060Z,33.25
2019-02-26T11:16:17.312Z,31.60
2019-02-26T11:19:17.768Z,31.57
2019-02-26T11:22:22.962Z,32.80
2019-02-26T11:25:27.583Z,30.90
2019-02-26T11:28:33.250Z,31.85
2019-02-26T11:31:38.927Z,32.17
2019-02-26T11:34:42.129Z,32.78
2019-02-26T11:37:47.249Z,32.88
2019-02-26T11:40:50.779Z,31.35
2019-02-26T11:43:54.316Z,32.28
2019-02-26T11:46:58.295Z,32.80
2019-02-26T11:50:04.113Z,35.15
2019-02-26T11:53:09.361Z,35.33
2019-02-26T11:56:13.105Z,33.63
2019-02-26T11:59:19.410Z,34.00
2019-02-26T12:02:28.054Z,34.50
2019-02-26T12:05:33.050Z,33.95
2019-02-26T12:08:33.560Z,35.40
2019-02-26T12:12:23.480Z,33.85
2019-02-26T12:15:42.740Z,31.62
2019-02-26T12:19:11.213Z,32.58
2019-02-26T12:23:13.366Z,31.52
2019-02-26T12:31:09.850Z,33.58
2019-02-26T12:34:32.060Z,33.08
2019-02-26T12:37:59.343Z,32.67
2019-02-26T12:41:45.893Z,32.00
2019-02-26T12:48:47.699Z,31.27
2019-02-26T12:51:51.167Z,32.50
2019-02-26T12:54:57.709Z,31.65
2019-02-26T12:58:01.120Z,31.40
2019-02-26T13:01:04.494Z,32.95
2019-02-26T13:04:09.624Z,32.88
2019-02-26T13:07:14.052Z,34.00
2019-02-26T13:10:20.733Z,34.53
2019-02-26T13:13:24.135Z,33.92
2019-02-26T13:16:27.636Z,31.90
2019-02-26T13:19:33.414Z,31.50
2019-02-26T13:22:36.380Z,32.93
2019-02-26T13:25:39.920Z,29.10
2019-02-26T13:28:46.835Z,31.85
2019-02-26T13:31:56.202Z,33.50
2019-02-26T13:35:00.802Z,32.90
2019-02-26T13:38:02.959Z,32.25
2019-02-26T13:41:25.339Z,33.35
2019-02-26T13:44:11.852Z,30.10
2019-02-26T13:47:15.464Z,31.45
2019-02-26T13:50:23.788Z,32.42
2019-02-26T13:53:27.172Z,30.60
2019-02-26T13:56:30.620Z,33.00
2019-02-26T13:59:34.264Z,30.92
2019-02-26T14:02:37.789Z,33.33
2019-02-26T14:05:41.320Z,32.30
2019-02-26T14:08:44.825Z,33.02
2019-02-26T14:11:48.290Z,31.82
2019-02-26T14:14:51.793Z,31.37
2019-02-26T14:17:58.677Z,32.88
2019-02-26T14:21:04.224Z,33.75
2019-02-26T14:24:07.629Z,32.73
2019-02-26T14:27:11.124Z,32.95
2019-02-26T14:30:14.629Z,33.38
2019-02-26T14:33:18.237Z,32.63
2019-02-26T14:36:21.636Z,32.48
2019-02-26T14:39:25.076Z,32.25
2019-02-26T14:42:28.640Z,33.20
2019-02-26T14:45:33.535Z,31.75
2019-02-26T14:48:36.972Z,32.85
2019-02-26T14:51:40.271Z,31.25
2019-02-26T14:54:43.771Z,32.85
2019-02-26T14:57:47.481Z,32.28
2019-02-26T15:00:57.408Z,32.55
2019-02-26T15:03:56.324Z,30.25
2019-02-26T15:06:59.728Z,29.92
2019-02-26T15:10:03.703Z,30.23
2019-02-26T15:13:07.364Z,29.82
2019-02-26T15:16:10.755Z,30.23
2019-02-26T15:19:14.151Z,29.75
2019-02-26T15:22:17.549Z,30.85
2019-02-26T15:25:22.180Z,29.30
2019-02-26T15:28:25.613Z,30.92
2019-02-26T15:31:29.432Z,31.52
2019-02-26T15:34:32.884Z,31.12
2019-02-26T15:37:36.428Z,31.15
2019-02-26T15:40:39.927Z,31.17
2019-02-26T15:43:43.389Z,32.13
2019-02-26T15:46:46.936Z,31.33
2019-02-26T15:49:51.671Z,31.60
2019-02-26T15:52:55.370Z,29.70
2019-02-26T15:55:59.472Z,31.00
2019-02-26T15:59:04.708Z,30.70
2019-02-26T16:02:08.852Z,30.77
2019-02-26T16:05:12.416Z,31.05
2019-02-26T16:08:15.965Z,31.60
2019-02-26T16:11:19.668Z,31.30
2019-02-26T16:14:24.152Z,32.28
2019-02-26T16:17:27.592Z,29.98
2019-02-26T16:20:31.152Z,29.52
2019-02-26T16:23:34.760Z,30.05
2019-02-26T16:26:38.469Z,28.90
2019-02-26T16:29:44.067Z,31.17
2019-02-26T16:32:48.958Z,29.12
2019-02-26T16:35:52.710Z,30.72
2019-02-26T16:38:56.264Z,30.90
2019-02-26T16:41:59.732Z,29.15
2019-02-26T16:45:03.381Z,29.00
2019-02-26T16:48:09.852Z,31.10
2019-02-26T16:51:13.570Z,31.52
2019-02-26T16:54:17.208Z,31.77
2019-02-26T16:57:21.684Z,30.72
2019-02-26T17:00:25.187Z,30.45
2019-02-26T17:03:28.733Z,30.55
2019-02-26T17:06:45.001Z,28.65
2019-02-26T17:09:48.620Z,28.73
2019-02-26T17:12:53.444Z,28.65
2019-02-26T17:15:59.399Z,31.82
2019-02-26T17:19:02.179Z,31.42
2019-02-26T17:22:05.880Z,32.70
2019-02-26T17:25:09.410Z,34.20
2019-02-26T17:28:12.942Z,34.13
2019-02-26T17:31:17.376Z,33.05
2019-02-26T17:34:23.483Z,32.40
2019-02-26T17:37:26.312Z,34.95
2019-02-26T17:40:29.764Z,42.53
2019-02-26T17:43:33.728Z,39.95
2019-02-26T17:46:37.180Z,35.83
2019-02-26T17:49:40.679Z,34.25
2019-02-26T17:52:44.184Z,33.55
2019-02-26T17:55:47.836Z,34.63
2019-02-26T17:58:51.392Z,36.83
2019-02-26T18:01:54.995Z,30.80
2019-02-26T18:05:00.592Z,33.85
2019-02-26T18:08:04.104Z,36.45
2019-02-26T18:11:07.551Z,38.10
2019-02-26T18:14:11.152Z,34.18
2019-02-26T18:17:14.112Z,38.55
2019-02-26T18:20:17.756Z,37.20
2019-02-26T18:23:21.300Z,37.17
2019-02-26T18:26:24.886Z,36.77
2019-02-26T18:29:28.491Z,36.85
2019-02-26T18:32:32.681Z,37.65
2019-02-26T18:35:36.221Z,38.08
2019-02-26T18:38:39.956Z,38.75
2019-02-26T18:41:50.544Z,36.73
2019-02-26T18:44:48.972Z,39.55
2019-02-26T18:47:52.700Z,39.73
2019-02-26T18:50:56.296Z,35.13
2019-02-26T18:54:00.411Z,35.90
2019-02-26T18:57:04.020Z,36.38
2019-02-26T19:00:09.113Z,34.23
2019-02-26T19:03:14.489Z,33.75
2019-02-26T19:06:19.476Z,39.27
2019-02-26T19:09:23.112Z,38.42
2019-02-26T19:12:30.260Z,36.57
2019-02-26T19:15:32.164Z,36.40
2019-02-26T19:18:36.221Z,38.15
2019-02-26T19:21:40.640Z,35.08
2019-02-26T19:24:44.201Z,37.67
2019-02-26T19:27:47.743Z,36.75
2019-02-26T19:30:51.226Z,37.60
2019-02-26T19:33:55.781Z,39.05
2019-02-26T19:36:59.376Z,39.35
2019-02-26T19:40:05.742Z,41.27
2019-02-26T19:43:08.439Z,40.98
2019-02-26T19:46:11.892Z,43.73
2019-02-26T19:49:15.496Z,37.58
2019-02-26T19:52:19.130Z,36.85
2019-02-26T19:55:24.960Z,47.20
2019-02-26T19:58:28.399Z,47.78
2019-02-26T20:01:31.964Z,46.95
2019-02-26T20:04:38.422Z,45.90
2019-02-26T20:07:41.057Z,42.80
2019-02-26T20:10:48.722Z,40.98
2019-02-26T20:13:51.504Z,43.07
2019-02-26T20:16:55.008Z,45.00
2019-02-26T20:19:58.412Z,47.47
2019-02-26T20:23:05.200Z,45.50
2019-02-26T20:26:08.080Z,46.28
2019-02-26T20:29:11.580Z,49.63
2019-02-26T20:32:15.080Z,45.48
2019-02-26T20:35:18.581Z,48.35
2019-02-26T20:38:22.024Z,44.58
2019-02-26T20:41:25.580Z,42.60
2019-02-26T20:44:29.096Z,42.38
2019-02-26T20:47:32.936Z,41.73
2019-02-26T20:50:36.561Z,41.63
2019-02-26T20:53:40.248Z,44.23
2019-02-26T20:56:44.949Z,44.50
2019-02-26T20:59:51.719Z,46.10
2019-02-26T21:02:55.197Z,39.53
2019-02-26T21:05:58.692Z,41.30
2019-02-26T21:09:06.953Z,39.57
2019-02-26T21:12:10.556Z,43.23
2019-02-26T21:15:15.776Z,44.37
2019-02-26T21:18:19.840Z,45.20
2019-02-26T21:21:23.984Z,45.65
2019-02-26T21:24:28.040Z,46.03
2019-02-26T21:27:31.744Z,45.00
2019-02-26T21:30:35.501Z,45.70
2019-02-26T21:33:39.661Z,48.93
2019-02-26T21:36:43.308Z,49.35
2019-02-26T21:39:47.340Z,44.85
2019-02-26T21:42:51.019Z,42.97
2019-02-26T21:45:54.496Z,46.27
2019-02-26T21:48:58.369Z,54.37
2019-02-26T21:52:01.877Z,48.57
2019-02-26T21:55:05.864Z,46.07
2019-02-26T21:58:09.502Z,45.63
2019-02-26T22:01:14.129Z,46.65
2019-02-26T22:04:17.789Z,44.00
2019-02-26T22:07:21.393Z,40.33
2019-02-26T22:10:24.823Z,42.00
2019-02-26T22:13:29.284Z,42.83
2019-02-26T22:16:33.257Z,66.25
2019-02-26T22:19:37.687Z,43.50
2019-02-26T22:22:42.417Z,41.10
2019-02-26T22:25:46.056Z,41.93
2019-02-26T22:28:49.409Z,39.37
2019-02-26T22:31:53.320Z,36.67
2019-02-26T22:34:57.028Z,34.90
2019-02-26T22:38:00.638Z,36.63
2019-02-26T22:41:35.162Z,37.33
2019-02-26T22:44:39.283Z,37.07
2019-02-26T22:47:44.144Z,38.47
2019-02-26T22:50:48.020Z,41.27
2019-02-26T22:53:51.527Z,45.20
2019-02-26T23:02:31.579Z,42.00
2019-02-26T23:05:35.120Z,42.37
2019-02-26T23:08:38.783Z,40.43
2019-02-26T23:11:42.228Z,40.73
2019-02-26T23:14:45.736Z,40.83
2019-02-26T23:17:49.396Z,41.63
2019-02-26T23:20:53.040Z,46.43
2019-02-26T23:23:56.540Z,46.10
2019-02-26T23:27:00.660Z,46.73
2019-02-26T23:30:07.704Z,50.97
2019-02-26T23:33:15.034Z,51.53
2019-02-26T23:36:18.844Z,50.07
2019-02-26T23:39:22.335Z,53.60
2019-02-26T23:42:27.692Z,54.93
2019-02-26T23:45:31.495Z,45.13
2019-02-26T23:48:35.068Z,51.33
2019-02-26T23:51:38.512Z,58.27
2019-02-26T23:54:41.972Z,69.13
2019-02-26T23:57:45.575Z,65.13
